Seafrance Rodin — FOBQ — position and weather

sailwx.info

Track history (hours):
 
Tides and Currents Weather Stations Pressure Air Temp Water Temp Dewpoint Dewpoint Depression Visibility Wind Speed Wind Dir Waves Ship Positions

Seafrance Rodin

Operator: SeaFrance

Last reported at 2019-Jan-23 17:30 UTC. Time now 2019-Jan-23 17:34 UTC.
Position N 50°58' E 001°51'.

Length 185 m; draft 6 m.

Type: Ship (hazmat cat A). MMSI: 227022800.

Date/timePositionNaut miles runAvg speedWind from/ knotsBaromVisibWave heightAir tempDewpointWater temp
2019-Jan-23 17:30N 50°58' E 001°51'0 0.0
2019-Jan-23 17:00N 50°58' E 001°51'1 2.7
2019-Jan-23 16:30N 50°58' E 001°49'917.3
2019-Jan-23 16:00N 51°00' E 001°36'1019.2
2019-Jan-23 15:31N 51°06' E 001°24'3 5.3
2019-Jan-23 15:00N 51°07' E 001°20'0 0.2
2019-Jan-23 14:22N 51°07' E 001°20'412.0
2019-Jan-23 14:00N 51°06' E 001°27'917.9
2019-Jan-23 13:31N 51°02' E 001°39'815.7
2019-Jan-23 13:01N 50°58' E 001°50'1 1.3
2019-Jan-23 12:30N 50°58' E 001°51'1 1.5
2019-Jan-23 12:00N 50°58' E 001°50'917.7
2019-Jan-23 11:31N 50°59' E 001°36'917.8
2019-Jan-23 11:01N 51°05' E 001°25'4 7.9
2019-Jan-23 10:29N 51°07' E 001°20'0 0.0
2019-Jan-23 09:56N 51°07' E 001°20'2 5.3
2019-Jan-23 09:30N 51°07' E 001°24'918.8
2019-Jan-23 09:00N 51°02' E 001°37'917.5
2019-Jan-23 08:30N 50°58' E 001°49'1 2.9
2019-Jan-23 08:00N 50°58' E 001°51'0 0.0
2019-Jan-23 07:30N 50°58' E 001°51'3 5.9
2019-Jan-23 07:00N 50°58' E 001°47'815.3
2019-Jan-23 06:30N 51°00' E 001°35'917.3
2019-Jan-23 06:01N 51°06' E 001°24'3 4.0
2019-Jan-23 05:13N 51°07' E 001°20'0 0.8
2019-Jan-23 05:00N 51°07' E 001°20'3 5.7
2019-Jan-23 04:30N 51°07' E 001°25'714.9
2019-Jan-23 04:00N 51°03' E 001°35'815.1
2019-Jan-23 03:30N 50°58' E 001°44'4 8.8
2019-Jan-23 03:00N 50°58' E 001°51'0 0.0
2019-Jan-23 02:30N 50°58' E 001°51'612.2
2019-Jan-23 02:00N 50°58' E 001°42'1019.2
2019-Jan-23 01:31N 51°04' E 001°29'7 8.1
2019-Jan-23 00:41N 51°07' E 001°20'0 0.0
2019-Jan-23 00:26N 51°07' E 001°20'0 0.0
2019-Jan-22 23:57N 51°07' E 001°20'4 8.0
2019-Jan-22 23:31N 51°07' E 001°26'917.9
2019-Jan-22 23:00N 51°02' E 001°37'816.5
2019-Jan-22 22:30N 50°58' E 001°50'1 2.2
2019-Jan-22 22:01N 50°58' E 001°51'0 0.0
2019-Jan-22 21:30N 50°58' E 001°51'612.5
2019-Jan-22 21:01N 50°58' E 001°41'815.6
2019-Jan-22 20:31N 51°02' E 001°30'816.6
2019-Jan-22 20:00N 51°07' E 001°21'0 0.4
2019-Jan-22 19:17N 51°07' E 001°20'0 0.3
2019-Jan-22 19:00N 51°07' E 001°20'713.9
2019-Jan-22 18:30N 51°05' E 001°30'1019.2
2019-Jan-22 18:01N 50°59' E 001°43'510.8
2019-Jan-22 17:30N 50°58' E 001°51'0 0.0
2019-Jan-22 17:00N 50°58' E 001°51'1 2.7
2019-Jan-22 16:31N 50°58' E 001°49'815.0
2019-Jan-22 16:00N 50°60' E 001°37'917.8
2019-Jan-22 15:30N 51°05' E 001°26'5 8.9
2019-Jan-22 15:00N 51°07' E 001°20'0 0.0
2019-Jan-22 14:30N 51°07' E 001°20'4 8.0
2019-Jan-22 14:01N 51°07' E 001°26'917.3
2019-Jan-22 13:31N 51°02' E 001°38'815.8
2019-Jan-22 13:01N 50°58' E 001°49'1 2.8
2019-Jan-22 12:31N 50°58' E 001°51'0 0.0
2019-Jan-22 12:00N 50°58' E 001°51'815.4
2019-Jan-22 11:30N 50°59' E 001°39'918.5
2019-Jan-22 11:01N 51°04' E 001°26'5 9.9
2019-Jan-22 10:28N 51°07' E 001°20'0 0.0
2019-Jan-22 10:00N 51°07' E 001°20'3 6.3
2019-Jan-22 09:31N 51°07' E 001°25'918.1
2019-Jan-22 09:01N 51°02' E 001°38'816.6
2019-Jan-22 08:31N 50°58' E 001°49'1 2.6
2019-Jan-22 08:00N 50°58' E 001°51'0 0.0
2019-Jan-22 07:31N 50°58' E 001°51'611.4
2019-Jan-22 07:01N 50°58' E 001°42'816.5
2019-Jan-22 06:30N 51°02' E 001°31'816.5
2019-Jan-22 06:00N 51°07' E 001°21'0 0.5
2019-Jan-22 05:27N 51°07' E 001°20'0 0.0
2019-Jan-22 04:59N 51°07' E 001°20'4 7.4
2019-Jan-22 04:31N 51°06' E 001°26'917.8
2019-Jan-22 04:01N 51°02' E 001°38'9 9.3
2019-Jan-22 03:01N 50°58' E 001°51'0 0.0
2019-Jan-22 02:31N 50°58' E 001°51'2 3.9
2019-Jan-22 02:01N 50°58' E 001°48'713.8
2019-Jan-22 01:31N 50°59' E 001°37'816.4
2019-Jan-22 01:01N 51°04' E 001°27'611.3
2019-Jan-22 00:30N 51°07' E 001°20'0 0.0
2019-Jan-22 00:00N 51°07' E 001°20'2 4.4
2019-Jan-21 23:31N 51°07' E 001°24'816.8
2019-Jan-21 23:01N 51°03' E 001°35'816.7
2019-Jan-21 22:31N 50°58' E 001°46'3 6.6
2019-Jan-21 22:01N 50°58' E 001°51'0 0.0
2019-Jan-21 21:31N 50°58' E 001°51'3 6.1
2019-Jan-21 21:00N 50°58' E 001°46'815.8
2019-Jan-21 20:31N 51°01' E 001°35'816.5
2019-Jan-21 20:00N 51°05' E 001°24'3 5.7
2019-Jan-21 19:28N 51°07' E 001°20'0 0.0
2019-Jan-21 19:01N 51°07' E 001°20'611.5
2019-Jan-21 18:31N 51°05' E 001°29'918.6
2019-Jan-21 18:00N 51°00' E 001°41'713.7
2019-Jan-21 17:30N 50°58' E 001°51'0 0.1
2019-Jan-21 17:00N 50°58' E 001°51'1 1.4
2019-Jan-21 16:31N 50°58' E 001°50'815.9
2019-Jan-21 16:01N 50°58' E 001°38'815.9
2019-Jan-21 15:30N 51°04' E 001°28'610.9
2019-Jan-21 14:56N 51°07' E 001°20'0 0.0
2019-Jan-21 14:21N 51°07' E 001°20'3 9.4
2019-Jan-21 14:00N 51°07' E 001°25'816.9
2019-Jan-21 13:30N 51°02' E 001°37'816.0
2019-Jan-21 13:00N 50°58' E 001°48'2 4.6
2019-Jan-21 12:30N 50°58' E 001°51'0 0.0
2019-Jan-21 12:00N 50°58' E 001°51'611.9
2019-Jan-21 11:30N 50°58' E 001°42'816.9
2019-Jan-21 11:00N 51°02' E 001°30'815.7
2019-Jan-21 10:30N 51°07' E 001°21'0 0.4
2019-Jan-21 09:50N 51°07' E 001°20'1 3.2
2019-Jan-21 09:30N 51°07' E 001°22'917.0
2019-Jan-21 09:00N 51°03' E 001°34'917.6
2019-Jan-21 08:31N 50°58' E 001°45'4 7.7
2019-Jan-21 08:00N 50°58' E 001°51'0 0.0
2019-Jan-21 07:30N 50°58' E 001°51'4 7.2
2019-Jan-21 07:00N 50°58' E 001°45'714.7
2019-Jan-21 06:31N 50°59' E 001°34'917.5
2019-Jan-21 06:00N 51°05' E 001°24'4 6.8
2019-Jan-21 05:30N 51°07' E 001°20'0 0.0
2019-Jan-21 04:53N 51°07' E 001°20'3 8.3
2019-Jan-21 04:31N 51°07' E 001°25'816.6
2019-Jan-21 04:01N 51°03' E 001°37'815.3
2019-Jan-21 03:31N 50°58' E 001°46'3 6.2
2019-Jan-21 03:01N 50°58' E 001°51'0 0.0
2019-Jan-21 02:31N 50°58' E 001°51'1 2.9
2019-Jan-21 02:01N 50°58' E 001°49'815.6
2019-Jan-21 01:30N 50°59' E 001°37'917.2
2019-Jan-21 01:01N 51°04' E 001°25'5 7.0
2019-Jan-21 00:21N 51°07' E 001°20'0 0.0
2019-Jan-20 23:56N 51°07' E 001°20'2 5.5
2019-Jan-20 23:31N 51°07' E 001°24'815.8
2019-Jan-20 23:01N 51°03' E 001°34'815.9
2019-Jan-20 22:31N 50°58' E 001°45'4 8.2
2019-Jan-20 22:00N 50°58' E 001°51'0 0.0
2019-Jan-20 21:30N 50°58' E 001°51'4 7.6
2019-Jan-20 21:01N 50°58' E 001°45'816.2
2019-Jan-20 20:30N 50°60' E 001°33'816.4
2019-Jan-20 20:00N 51°05' E 001°23'3 5.3
2019-Jan-20 19:29N 51°07' E 001°20'0 0.1
2019-Jan-20 19:00N 51°07' E 001°20'612.0
2019-Jan-20 18:30N 51°06' E 001°29'917.6
2019-Jan-20 18:00N 50°60' E 001°40'714.5
2019-Jan-20 17:30N 50°58' E 001°51'0 0.1
2019-Jan-20 17:00N 50°58' E 001°51'2 3.1
2019-Jan-20 16:31N 50°58' E 001°49'714.7
2019-Jan-20 16:01N 50°59' E 001°37'815.6
2019-Jan-20 15:30N 51°04' E 001°28'6 8.7
2019-Jan-20 14:49N 51°07' E 001°20'0 0.0
2019-Jan-20 14:21N 51°07' E 001°20'3 8.6
2019-Jan-20 14:01N 51°07' E 001°25'917.9
2019-Jan-20 13:31N 51°02' E 001°37'816.6
2019-Jan-20 13:01N 50°58' E 001°49'2 2.9
2019-Jan-20 12:20N 50°58' E 001°52'0 0.0
2019-Jan-20 11:59N 50°58' E 001°52'0 0.0
2019-Jan-20 11:25N 50°58' E 001°52'0 0.0
2019-Jan-20 10:55N 50°58' E 001°52'0 0.0
2019-Jan-20 10:30N 50°58' E 001°52'0 0.0
2019-Jan-20 09:58N 50°58' E 001°52'0 0.0
2019-Jan-20 09:24N 50°58' E 001°52'0 0.0
2019-Jan-20 08:55N 50°58' E 001°52'0 0.0
2019-Jan-20 08:30N 50°58' E 001°52'0 0.0
2019-Jan-20 07:58N 50°58' E 001°52'0 0.0
2019-Jan-20 07:30N 50°58' E 001°52'0 0.0
2019-Jan-20 06:58N 50°58' E 001°52'0 0.0
2019-Jan-20 06:29N 50°58' E 001°52'0 0.0
2019-Jan-20 05:54N 50°58' E 001°52'0 0.0
2019-Jan-20 05:28N 50°58' E 001°52'0 0.0
2019-Jan-20 04:57N 50°58' E 001°52'0 0.0
2019-Jan-20 04:30N 50°58' E 001°52'0 0.0
2019-Jan-20 03:59N 50°58' E 001°52'0 0.0
2019-Jan-20 03:24N 50°58' E 001°52'0 0.0
2019-Jan-20 02:59N 50°58' E 001°52'0 0.0
2019-Jan-20 02:25N 50°58' E 001°52'3 6.6
2019-Jan-20 02:01N 50°58' E 001°47'816.5
2019-Jan-20 01:30N 50°59' E 001°34'815.9
2019-Jan-20 01:01N 51°04' E 001°25'5 6.2
2019-Jan-20 00:17N 51°07' E 001°20'0 0.0
2019-Jan-19 23:57N 51°07' E 001°20'510.4
2019-Jan-19 23:31N 51°06' E 001°27'815.9
2019-Jan-19 23:00N 51°03' E 001°38'815.0
2019-Jan-19 22:31N 50°58' E 001°48'2 4.4
2019-Jan-19 22:00N 50°58' E 001°51'0 0.0
2019-Jan-19 21:30N 50°58' E 001°51'4 7.5
2019-Jan-19 21:00N 50°58' E 001°45'816.2
2019-Jan-19 20:30N 50°60' E 001°33'816.3
2019-Jan-19 20:01N 51°06' E 001°24'3 3.8
2019-Jan-19 19:14N 51°07' E 001°20'0 0.1
2019-Jan-19 19:00N 51°07' E 001°20'510.6
2019-Jan-19 18:31N 51°05' E 001°28'917.7
2019-Jan-19 18:00N 51°01' E 001°39'815.4
2019-Jan-19 17:31N 50°58' E 001°51'0 0.2
2019-Jan-19 17:00N 50°58' E 001°51'2 3.9
2019-Jan-19 16:30N 50°58' E 001°48'714.2
2019-Jan-19 16:01N 50°58' E 001°37'816.1
2019-Jan-19 15:30N 51°03' E 001°27'6 7.6
2019-Jan-19 14:43N 51°07' E 001°20'0 0.0
2019-Jan-19 14:23N 51°07' E 001°20'411.0
2019-Jan-19 14:01N 51°06' E 001°26'917.8
2019-Jan-19 13:30N 51°01' E 001°38'816.2
2019-Jan-19 13:00N 50°58' E 001°50'1 1.4
2019-Jan-19 12:30N 50°58' E 001°51'0 0.4
2019-Jan-19 12:00N 50°58' E 001°51'815.8
2019-Jan-19 11:30N 50°59' E 001°39'917.4
2019-Jan-19 11:01N 51°05' E 001°28'610.6
2019-Jan-19 10:29N 51°07' E 001°20'0 0.0
2019-Jan-19 09:55N 51°07' E 001°20'3 6.6
2019-Jan-19 09:31N 51°07' E 001°24'918.3
2019-Jan-19 09:01N 51°02' E 001°36'816.5
2019-Jan-19 08:30N 50°58' E 001°48'2 3.7
2019-Jan-19 08:00N 50°58' E 001°51'0 0.0
2019-Jan-19 07:30N 50°58' E 001°51'4 7.6
2019-Jan-19 07:00N 50°58' E 001°45'816.4
2019-Jan-19 06:30N 51°00' E 001°33'816.2
2019-Jan-19 06:00N 51°06' E 001°23'3 4.5
2019-Jan-19 05:27N 51°07' E 001°20'0 0.0
2019-Jan-19 04:59N 51°07' E 001°20'4 7.6
2019-Jan-19 04:31N 51°07' E 001°26'815.7
2019-Jan-19 04:00N 51°03' E 001°36'815.5
2019-Jan-19 03:31N 50°58' E 001°46'3 5.8
2019-Jan-19 03:00N 50°58' E 001°51'0 0.0
2019-Jan-19 02:31N 50°58' E 001°51'1 3.0
2019-Jan-19 02:00N 50°58' E 001°49'816.0
2019-Jan-19 01:30N 51°00' E 001°36'816.4
2019-Jan-19 01:01N 51°04' E 001°25'4 5.4
2019-Jan-19 00:12N 51°07' E 001°20'0 0.0
2019-Jan-18 23:53N 51°07' E 001°20'2 4.9
2019-Jan-18 23:31N 51°07' E 001°23'815.8
2019-Jan-18 23:01N 51°03' E 001°34'816.0
2019-Jan-18 22:31N 50°58' E 001°44'4 8.6
2019-Jan-18 22:00N 50°58' E 001°51'0 0.0
2019-Jan-18 21:30N 50°58' E 001°51'4 8.1
2019-Jan-18 21:01N 50°58' E 001°45'917.6
2019-Jan-18 20:31N 51°01' E 001°32'816.2
2019-Jan-18 20:00N 51°06' E 001°22'2 2.8
2019-Jan-18 19:27N 51°07' E 001°20'0 0.0
2019-Jan-18 19:00N 51°07' E 001°20'611.5
2019-Jan-18 18:30N 51°06' E 001°29'917.3
2019-Jan-18 18:00N 51°00' E 001°40'714.9
2019-Jan-18 17:30N 50°58' E 001°51'0 0.2
2019-Jan-18 17:00N 50°58' E 001°51'1 2.3
2019-Jan-18 16:31N 50°58' E 001°50'713.0
2019-Jan-18 16:01N 50°58' E 001°39'917.8
2019-Jan-18 15:31N 51°04' E 001°28'612.0
2019-Jan-18 14:59N 51°07' E 001°20'0 0.0
2019-Jan-18 14:30N 51°07' E 001°20'4 7.6
2019-Jan-18 14:01N 51°06' E 001°26'917.0
2019-Jan-18 13:30N 51°02' E 001°38'816.2
2019-Jan-18 13:01N 50°58' E 001°49'1 3.0
2019-Jan-18 12:31N 50°58' E 001°51'0 0.2
2019-Jan-18 12:01N 50°58' E 001°51'713.9
2019-Jan-18 11:31N 50°58' E 001°40'817.0
2019-Jan-18 11:00N 51°03' E 001°29'713.3
2019-Jan-18 10:29N 51°07' E 001°20'0 0.0
2019-Jan-18 09:48N 51°07' E 001°20'1 4.5
2019-Jan-18 09:30N 51°07' E 001°22'918.0
2019-Jan-18 09:00N 51°03' E 001°35'917.7
2019-Jan-18 08:30N 50°58' E 001°47'3 6.0
2019-Jan-18 08:01N 50°58' E 001°51'0 0.0
2019-Jan-18 07:31N 50°58' E 001°51'2 4.7
2019-Jan-18 07:00N 50°58' E 001°47'917.2
2019-Jan-18 06:30N 50°60' E 001°34'917.2
2019-Jan-18 06:01N 51°05' E 001°24'3 5.0
2019-Jan-18 05:22N 51°07' E 001°20'0 0.0
2019-Jan-18 04:59N 51°07' E 001°20'4 7.6
2019-Jan-18 04:31N 51°06' E 001°26'817.0
2019-Jan-18 04:01N 51°01' E 001°37'816.4
2019-Jan-18 03:31N 50°58' E 001°49'2 3.3
2019-Jan-18 03:01N 50°58' E 001°51'0 0.0
2019-Jan-18 02:30N 50°58' E 001°51'2 3.1
2019-Jan-18 02:01N 50°58' E 001°49'815.1
2019-Jan-18 01:30N 50°60' E 001°37'816.1
2019-Jan-18 01:00N 51°04' E 001°27'5 9.6
2019-Jan-18 00:28N 51°07' E 001°20'0 0.0
2019-Jan-17 23:57N 51°07' E 001°20'4 9.5
2019-Jan-17 23:31N 51°06' E 001°27'815.7
2019-Jan-17 23:00N 51°02' E 001°37'715.0
2019-Jan-17 22:30N 50°58' E 001°47'3 5.1
2019-Jan-17 22:01N 50°58' E 001°51'0 0.1
2019-Jan-17 21:31N 50°58' E 001°51'611.8
2019-Jan-17 21:01N 50°58' E 001°42'918.8
2019-Jan-17 20:31N 51°03' E 001°29'7 9.9
2019-Jan-17 19:47N 51°07' E 001°20'0 0.0
2019-Jan-17 19:30N 51°07' E 001°20'2 4.1
2019-Jan-17 19:01N 51°07' E 001°23'917.4
2019-Jan-17 18:31N 51°03' E 001°35'816.6
2019-Jan-17 18:01N 50°58' E 001°46'3 6.3
2019-Jan-17 17:30N 50°58' E 001°51'0 0.0
2019-Jan-17 17:00N 50°58' E 001°51'2 4.9
2019-Jan-17 16:31N 50°58' E 001°47'713.8
2019-Jan-17 16:00N 50°59' E 001°36'917.6
2019-Jan-17 15:30N 51°04' E 001°25'5 8.6
2019-Jan-17 14:58N 51°07' E 001°20'0 0.0
2019-Jan-17 14:27N 51°07' E 001°20'410.2
2019-Jan-17 14:01N 51°06' E 001°27'917.5
2019-Jan-17 13:31N 51°01' E 001°38'816.3
2019-Jan-17 13:00N 50°58' E 001°51'1 1.0
2019-Jan-17 12:30N 50°58' E 001°51'0 0.5
2019-Jan-17 12:00N 50°58' E 001°51'816.0
2019-Jan-17 11:30N 50°59' E 001°38'919.0
2019-Jan-17 11:00N 51°04' E 001°26'5 7.8
2019-Jan-17 10:23N 51°07' E 001°20'0 0.0
2019-Jan-17 09:50N 51°07' E 001°20'2 6.3
2019-Jan-17 09:31N 51°07' E 001°23'917.8
2019-Jan-17 09:00N 51°03' E 001°36'816.5
2019-Jan-17 08:30N 50°58' E 001°47'3 5.9
2019-Jan-17 08:00N 50°58' E 001°51'0 0.0
2019-Jan-17 07:31N 50°58' E 001°51'3 6.8
2019-Jan-17 07:01N 50°58' E 001°46'917.2
2019-Jan-17 06:30N 50°60' E 001°32'917.1
2019-Jan-17 06:00N 51°06' E 001°23'2 4.8
2019-Jan-17 05:30N 51°07' E 001°20'0 0.0
2019-Jan-17 04:57N 51°07' E 001°20'4 8.3
2019-Jan-17 04:30N 51°06' E 001°26'815.6
2019-Jan-17 04:01N 51°02' E 001°36'815.1
2019-Jan-17 03:30N 50°58' E 001°46'3 2.9
2019-Jan-17 02:31N 50°58' E 001°51'1 2.2
2019-Jan-17 02:00N 50°58' E 001°49'815.6
2019-Jan-17 01:30N 50°59' E 001°37'816.1
2019-Jan-17 01:01N 51°03' E 001°26'610.4
2019-Jan-17 00:27N 51°07' E 001°20'0 0.0
2019-Jan-16 23:48N 51°07' E 001°20'3 8.8
2019-Jan-16 23:31N 51°07' E 001°24'815.8
2019-Jan-16 23:01N 51°03' E 001°35'815.8
2019-Jan-16 22:31N 50°58' E 001°45'4 7.6
2019-Jan-16 22:01N 50°58' E 001°51'0 0.0
2019-Jan-16 21:31N 50°58' E 001°51'611.3
2019-Jan-16 21:01N 50°58' E 001°42'918.7
2019-Jan-16 20:31N 51°02' E 001°29'811.8
2019-Jan-16 19:52N 51°07' E 001°20'0 0.0
2019-Jan-16 19:30N 51°07' E 001°20'1 1.6
2019-Jan-16 19:01N 51°07' E 001°21'816.3
2019-Jan-16 18:30N 51°04' E 001°33'917.5
2019-Jan-16 18:01N 50°59' E 001°44'4 8.9
2019-Jan-16 17:30N 50°58' E 001°51'0 0.0
2019-Jan-16 17:00N 50°58' E 001°51'2 3.8
2019-Jan-16 16:31N 50°58' E 001°48'917.1
2019-Jan-16 16:00N 50°60' E 001°35'918.0
2019-Jan-16 15:30N 51°05' E 001°24'3 5.6
2019-Jan-16 14:59N 51°07' E 001°20'0 0.1
2019-Jan-16 14:30N 51°07' E 001°20'612.1
2019-Jan-16 14:01N 51°05' E 001°29'918.4
2019-Jan-16 13:30N 50°60' E 001°41'713.4
2019-Jan-16 13:01N 50°58' E 001°51'0 0.0
2019-Jan-16 12:31N 50°58' E 001°51'1 2.7
2019-Jan-16 12:01N 50°58' E 001°49'816.0
2019-Jan-16 11:31N 50°60' E 001°36'917.7
2019-Jan-16 11:00N 51°05' E 001°25'4 6.2
2019-Jan-16 10:23N 51°07' E 001°20'0 0.0
2019-Jan-16 09:56N 51°07' E 001°20'3 7.1
2019-Jan-16 09:30N 51°07' E 001°25'917.8
2019-Jan-16 09:00N 51°02' E 001°37'816.9
2019-Jan-16 08:31N 50°58' E 001°49'1 2.9
2019-Jan-16 08:00N 50°58' E 001°51'0 0.0
2019-Jan-16 07:31N 50°58' E 001°51'4 7.3
2019-Jan-16 07:01N 50°58' E 001°45'713.3
2019-Jan-16 06:31N 51°00' E 001°35'816.4
2019-Jan-16 06:00N 51°05' E 001°25'4 6.8
2019-Jan-16 05:26N 51°07' E 001°20'0 0.0
2019-Jan-16 05:00N 51°07' E 001°20'3 6.5
2019-Jan-16 04:31N 51°07' E 001°25'816.6
2019-Jan-16 04:01N 51°03' E 001°37'816.4
2019-Jan-16 03:30N 50°58' E 001°47'3 5.1
2019-Jan-16 03:00N 50°58' E 001°51'0 0.0
2019-Jan-16 02:31N 50°58' E 001°51'2 3.0
2019-Jan-16 02:01N 50°58' E 001°49'815.4
2019-Jan-16 01:31N 50°60' E 001°37'816.5
2019-Jan-16 01:00N 51°05' E 001°26'5 9.4
2019-Jan-16 00:30N 51°07' E 001°20'0 0.0
2019-Jan-15 23:53N 51°07' E 001°20'2 6.0
2019-Jan-15 23:31N 51°07' E 001°24'816.0
2019-Jan-15 23:00N 51°03' E 001°35'816.3
2019-Jan-15 22:31N 50°58' E 001°45'4 7.6
2019-Jan-15 22:00N 50°58' E 001°51'0 0.0
2019-Jan-15 21:30N 50°58' E 001°51'510.6
2019-Jan-15 21:00N 50°58' E 001°43'917.8
2019-Jan-15 20:30N 51°03' E 001°31'816.1
2019-Jan-15 20:00N 51°07' E 001°20'0 0.0
2019-Jan-15 19:10N 51°07' E 001°20'0 1.3
2019-Jan-15 19:00N 51°07' E 001°20'816.3
2019-Jan-15 18:31N 51°05' E 001°33'918.3
2019-Jan-15 18:01N 50°59' E 001°44'5 9.7
2019-Jan-15 17:30N 50°58' E 001°51'0 0.0
2019-Jan-15 17:00N 50°58' E 001°51'3 6.8
2019-Jan-15 16:31N 50°58' E 001°46'815.8
2019-Jan-15 16:00N 50°59' E 001°33'815.4
2019-Jan-15 15:30N 51°05' E 001°26'5 6.9
2019-Jan-15 14:51N 51°07' E 001°20'0 0.0
2019-Jan-15 14:29N 51°07' E 001°20'4 8.9
2019-Jan-15 14:01N 51°06' E 001°27'918.6
2019-Jan-15 13:30N 51°01' E 001°39'816.2
2019-Jan-15 13:00N 50°58' E 001°51'0 0.4
2019-Jan-15 12:30N 50°58' E 001°51'0 0.3
2019-Jan-15 12:00N 50°58' E 001°51'714.3
2019-Jan-15 11:31N 50°59' E 001°40'918.9
2019-Jan-15 11:00N 51°04' E 001°27'5 9.1
2019-Jan-15 10:24N 51°07' E 001°20'0 0.0
2019-Jan-15 09:51N 51°07' E 001°20'3 9.1
2019-Jan-15 09:31N 51°07' E 001°25'816.8
2019-Jan-15 09:01N 51°02' E 001°36'816.5
2019-Jan-15 08:31N 50°58' E 001°47'2 4.9
2019-Jan-15 08:01N 50°58' E 001°51'0 0.0
2019-Jan-15 07:31N 50°58' E 001°51'3 6.6
2019-Jan-15 07:01N 50°58' E 001°46'815.9
2019-Jan-15 06:30N 51°01' E 001°34'815.6
2019-Jan-15 06:01N 51°05' E 001°24'3 5.8
2019-Jan-15 05:26N 51°07' E 001°20'0 0.0
2019-Jan-15 04:58N 51°07' E 001°20'4 8.5
2019-Jan-15 04:31N 51°06' E 001°26'715.0
2019-Jan-15 04:00N 51°02' E 001°36'714.6
2019-Jan-15 03:31N 50°58' E 001°46'3 6.7
2019-Jan-15 03:00N 50°58' E 001°51'0 0.0
2019-Jan-15 02:30N 50°58' E 001°51'2 5.0
2019-Jan-15 02:00N 50°58' E 001°47'917.8
2019-Jan-15 01:30N 51°01' E 001°34'918.7
2019-Jan-15 01:00N 51°06' E 001°21'2 3.3
2019-Jan-15 00:30N 51°07' E 001°20'0 1.0
2019-Jan-15 00:00N 51°07' E 001°21'918.0
2019-Jan-14 23:31N 51°04' E 001°34'918.8
2019-Jan-14 23:00N 50°58' E 001°46'3 6.8
2019-Jan-14 22:30N 50°58' E 001°51'0 0.1
2019-Jan-14 22:00N 50°58' E 001°51'714.6
2019-Jan-14 21:30N 50°59' E 001°40'919.0
2019-Jan-14 21:00N 51°04' E 001°27'5 5.9
2019-Jan-14 20:05N 51°07' E 001°20'0 0.0
2019-Jan-14 20:00N 51°07' E 001°20'0 0.1
2019-Jan-14 19:17N 51°07' E 001°20'0 0.6
2019-Jan-14 19:00N 51°07' E 001°20'612.5
2019-Jan-14 18:31N 51°06' E 001°30'917.9
2019-Jan-14 18:00N 51°01' E 001°41'713.7
2019-Jan-14 17:30N 50°58' E 001°51'0 0.2
2019-Jan-14 17:01N 50°58' E 001°51'0 0.8
2019-Jan-14 16:31N 50°58' E 001°51'816.6
2019-Jan-14 16:00N 50°59' E 001°37'815.7
2019-Jan-14 15:30N 51°04' E 001°28'611.4
2019-Jan-14 14:59N 51°07' E 001°20'0 0.0
2019-Jan-14 14:30N 51°07' E 001°20'3 6.9
2019-Jan-14 14:00N 51°06' E 001°25'918.6
2019-Jan-14 13:30N 51°01' E 001°38'816.9
2019-Jan-14 13:00N 50°58' E 001°50'1 1.4
2019-Jan-14 12:30N 50°58' E 001°51'0 0.0
2019-Jan-14 12:01N 50°58' E 001°51'713.3
2019-Jan-14 11:31N 50°59' E 001°41'917.6
2019-Jan-14 11:00N 51°03' E 001°28'712.7
2019-Jan-14 10:28N 51°07' E 001°20'0 0.0
2019-Jan-14 09:59N 51°07' E 001°20'2 5.2
2019-Jan-14 09:31N 51°07' E 001°24'917.5
2019-Jan-14 09:00N 51°02' E 001°36'816.8
2019-Jan-14 08:30N 50°58' E 001°47'2 4.9
2019-Jan-14 08:01N 50°58' E 001°51'0 0.0
2019-Jan-14 07:31N 50°58' E 001°51'3 5.4
2019-Jan-14 07:00N 50°58' E 001°47'815.2
2019-Jan-14 06:30N 51°00' E 001°35'816.1
2019-Jan-14 06:00N 51°05' E 001°25'4 7.0
2019-Jan-14 05:27N 51°07' E 001°20'0 0.0
2019-Jan-14 05:00N 51°07' E 001°20'510.4
2019-Jan-14 04:30N 51°05' E 001°28'816.9
2019-Jan-14 04:01N 51°01' E 001°39'714.8
2019-Jan-14 03:31N 50°58' E 001°50'1 1.6
2019-Jan-14 03:01N 50°58' E 001°51'0 0.0
2019-Jan-14 02:31N 50°58' E 001°51'2 4.6
2019-Jan-14 02:01N 50°58' E 001°48'816.3
2019-Jan-14 01:30N 50°59' E 001°35'917.6
2019-Jan-14 01:00N 51°06' E 001°25'4 7.3
2019-Jan-14 00:30N 51°07' E 001°20'0 0.0
2019-Jan-13 23:58N 51°07' E 001°20'4 8.0
2019-Jan-13 23:30N 51°06' E 001°26'815.9
2019-Jan-13 23:00N 51°01' E 001°36'815.5
2019-Jan-13 22:31N 50°58' E 001°47'3 5.5
2019-Jan-13 22:00N 50°58' E 001°51'0 0.0
2019-Jan-13 21:31N 50°58' E 001°51'4 8.0
2019-Jan-13 21:00N 50°58' E 001°45'714.9
2019-Jan-13 20:31N 51°01' E 001°34'816.0
2019-Jan-13 20:00N 51°06' E 001°24'3 5.4
2019-Jan-13 19:29N 51°07' E 001°20'0 0.0
2019-Jan-13 19:00N 51°07' E 001°20'612.1
2019-Jan-13 18:30N 51°06' E 001°29'917.3
2019-Jan-13 18:01N 51°01' E 001°40'714.6
2019-Jan-13 17:30N 50°58' E 001°51'  
Track history (hours):
 
Tides and Currents Weather Stations Pressure Air Temp Water Temp Dewpoint Dewpoint Depression Visibility Wind Speed Wind Dir Waves Ship Positions

Seafrance Rodin

Operator: SeaFrance

Last reported at 2019-Jan-23 17:30 UTC. Time now 2019-Jan-23 17:34 UTC.
Position N 50°58' E 001°51'.

Length 185 m; draft 6 m.

Type: Ship (hazmat cat A). MMSI: 227022800.

Date/timePositionNaut miles runAvg speedWind from/ knotsBaromVisibWave heightAir tempDewpointWater temp
2019-Jan-23 17:30N 50°58' E 001°51'0 0.0
2019-Jan-23 17:00N 50°58' E 001°51'1 2.7
2019-Jan-23 16:30N 50°58' E 001°49'917.3
2019-Jan-23 16:00N 51°00' E 001°36'1019.2
2019-Jan-23 15:31N 51°06' E 001°24'3 5.3
2019-Jan-23 15:00N 51°07' E 001°20'0 0.2
2019-Jan-23 14:22N 51°07' E 001°20'412.0
2019-Jan-23 14:00N 51°06' E 001°27'917.9
2019-Jan-23 13:31N 51°02' E 001°39'815.7
2019-Jan-23 13:01N 50°58' E 001°50'1 1.3
2019-Jan-23 12:30N 50°58' E 001°51'1 1.5
2019-Jan-23 12:00N 50°58' E 001°50'917.7
2019-Jan-23 11:31N 50°59' E 001°36'917.8
2019-Jan-23 11:01N 51°05' E 001°25'4 7.9
2019-Jan-23 10:29N 51°07' E 001°20'0 0.0
2019-Jan-23 09:56N 51°07' E 001°20'2 5.3
2019-Jan-23 09:30N 51°07' E 001°24'918.8
2019-Jan-23 09:00N 51°02' E 001°37'917.5
2019-Jan-23 08:30N 50°58' E 001°49'1 2.9
2019-Jan-23 08:00N 50°58' E 001°51'0 0.0
2019-Jan-23 07:30N 50°58' E 001°51'3 5.9
2019-Jan-23 07:00N 50°58' E 001°47'815.3
2019-Jan-23 06:30N 51°00' E 001°35'917.3
2019-Jan-23 06:01N 51°06' E 001°24'3 4.0
2019-Jan-23 05:13N 51°07' E 001°20'0 0.8
2019-Jan-23 05:00N 51°07' E 001°20'3 5.7
2019-Jan-23 04:30N 51°07' E 001°25'714.9
2019-Jan-23 04:00N 51°03' E 001°35'815.1
2019-Jan-23 03:30N 50°58' E 001°44'4 8.8
2019-Jan-23 03:00N 50°58' E 001°51'0 0.0
2019-Jan-23 02:30N 50°58' E 001°51'612.2
2019-Jan-23 02:00N 50°58' E 001°42'1019.2
2019-Jan-23 01:31N 51°04' E 001°29'7 8.1
2019-Jan-23 00:41N 51°07' E 001°20'0 0.0
2019-Jan-23 00:26N 51°07' E 001°20'0 0.0
2019-Jan-22 23:57N 51°07' E 001°20'4 8.0
2019-Jan-22 23:31N 51°07' E 001°26'917.9
2019-Jan-22 23:00N 51°02' E 001°37'816.5
2019-Jan-22 22:30N 50°58' E 001°50'1 2.2
2019-Jan-22 22:01N 50°58' E 001°51'0 0.0
2019-Jan-22 21:30N 50°58' E 001°51'612.5
2019-Jan-22 21:01N 50°58' E 001°41'815.6
2019-Jan-22 20:31N 51°02' E 001°30'816.6
2019-Jan-22 20:00N 51°07' E 001°21'0 0.4
2019-Jan-22 19:17N 51°07' E 001°20'0 0.3
2019-Jan-22 19:00N 51°07' E 001°20'713.9
2019-Jan-22 18:30N 51°05' E 001°30'1019.2
2019-Jan-22 18:01N 50°59' E 001°43'510.8
2019-Jan-22 17:30N 50°58' E 001°51'0 0.0
2019-Jan-22 17:00N 50°58' E 001°51'1 2.7
2019-Jan-22 16:31N 50°58' E 001°49'815.0
2019-Jan-22 16:00N 50°60' E 001°37'917.8
2019-Jan-22 15:30N 51°05' E 001°26'5 8.9
2019-Jan-22 15:00N 51°07' E 001°20'0 0.0
2019-Jan-22 14:30N 51°07' E 001°20'4 8.0
2019-Jan-22 14:01N 51°07' E 001°26'917.3
2019-Jan-22 13:31N 51°02' E 001°38'815.8
2019-Jan-22 13:01N 50°58' E 001°49'1 2.8
2019-Jan-22 12:31N 50°58' E 001°51'0 0.0
2019-Jan-22 12:00N 50°58' E 001°51'815.4
2019-Jan-22 11:30N 50°59' E 001°39'918.5
2019-Jan-22 11:01N 51°04' E 001°26'5 9.9
2019-Jan-22 10:28N 51°07' E 001°20'0 0.0
2019-Jan-22 10:00N 51°07' E 001°20'3 6.3
2019-Jan-22 09:31N 51°07' E 001°25'918.1
2019-Jan-22 09:01N 51°02' E 001°38'816.6
2019-Jan-22 08:31N 50°58' E 001°49'1 2.6
2019-Jan-22 08:00N 50°58' E 001°51'0 0.0
2019-Jan-22 07:31N 50°58' E 001°51'611.4
2019-Jan-22 07:01N 50°58' E 001°42'816.5
2019-Jan-22 06:30N 51°02' E 001°31'816.5
2019-Jan-22 06:00N 51°07' E 001°21'0 0.5
2019-Jan-22 05:27N 51°07' E 001°20'0 0.0
2019-Jan-22 04:59N 51°07' E 001°20'4 7.4
2019-Jan-22 04:31N 51°06' E 001°26'917.8
2019-Jan-22 04:01N 51°02' E 001°38'9 9.3
2019-Jan-22 03:01N 50°58' E 001°51'0 0.0
2019-Jan-22 02:31N 50°58' E 001°51'2 3.9
2019-Jan-22 02:01N 50°58' E 001°48'713.8
2019-Jan-22 01:31N 50°59' E 001°37'816.4
2019-Jan-22 01:01N 51°04' E 001°27'611.3
2019-Jan-22 00:30N 51°07' E 001°20'0 0.0
2019-Jan-22 00:00N 51°07' E 001°20'2 4.4
2019-Jan-21 23:31N 51°07' E 001°24'816.8
2019-Jan-21 23:01N 51°03' E 001°35'816.7
2019-Jan-21 22:31N 50°58' E 001°46'3 6.6
2019-Jan-21 22:01N 50°58' E 001°51'0 0.0
2019-Jan-21 21:31N 50°58' E 001°51'3 6.1
2019-Jan-21 21:00N 50°58' E 001°46'815.8
2019-Jan-21 20:31N 51°01' E 001°35'816.5
2019-Jan-21 20:00N 51°05' E 001°24'3 5.7
2019-Jan-21 19:28N 51°07' E 001°20'0 0.0
2019-Jan-21 19:01N 51°07' E 001°20'611.5
2019-Jan-21 18:31N 51°05' E 001°29'918.6
2019-Jan-21 18:00N 51°00' E 001°41'713.7
2019-Jan-21 17:30N 50°58' E 001°51'0 0.1
2019-Jan-21 17:00N 50°58' E 001°51'1 1.4
2019-Jan-21 16:31N 50°58' E 001°50'815.9
2019-Jan-21 16:01N 50°58' E 001°38'815.9
2019-Jan-21 15:30N 51°04' E 001°28'610.9
2019-Jan-21 14:56N 51°07' E 001°20'0 0.0
2019-Jan-21 14:21N 51°07' E 001°20'3 9.4
2019-Jan-21 14:00N 51°07' E 001°25'816.9
2019-Jan-21 13:30N 51°02' E 001°37'816.0
2019-Jan-21 13:00N 50°58' E 001°48'2 4.6
2019-Jan-21 12:30N 50°58' E 001°51'0 0.0
2019-Jan-21 12:00N 50°58' E 001°51'611.9
2019-Jan-21 11:30N 50°58' E 001°42'816.9
2019-Jan-21 11:00N 51°02' E 001°30'815.7
2019-Jan-21 10:30N 51°07' E 001°21'0 0.4
2019-Jan-21 09:50N 51°07' E 001°20'1 3.2
2019-Jan-21 09:30N 51°07' E 001°22'917.0
2019-Jan-21 09:00N 51°03' E 001°34'917.6
2019-Jan-21 08:31N 50°58' E 001°45'4 7.7
2019-Jan-21 08:00N 50°58' E 001°51'0 0.0
2019-Jan-21 07:30N 50°58' E 001°51'4 7.2
2019-Jan-21 07:00N 50°58' E 001°45'714.7
2019-Jan-21 06:31N 50°59' E 001°34'917.5
2019-Jan-21 06:00N 51°05' E 001°24'4 6.8
2019-Jan-21 05:30N 51°07' E 001°20'0 0.0
2019-Jan-21 04:53N 51°07' E 001°20'3 8.3
2019-Jan-21 04:31N 51°07' E 001°25'816.6
2019-Jan-21 04:01N 51°03' E 001°37'815.3
2019-Jan-21 03:31N 50°58' E 001°46'3 6.2
2019-Jan-21 03:01N 50°58' E 001°51'0 0.0
2019-Jan-21 02:31N 50°58' E 001°51'1 2.9
2019-Jan-21 02:01N 50°58' E 001°49'815.6
2019-Jan-21 01:30N 50°59' E 001°37'917.2
2019-Jan-21 01:01N 51°04' E 001°25'5 7.0
2019-Jan-21 00:21N 51°07' E 001°20'0 0.0
2019-Jan-20 23:56N 51°07' E 001°20'2 5.5
2019-Jan-20 23:31N 51°07' E 001°24'815.8
2019-Jan-20 23:01N 51°03' E 001°34'815.9
2019-Jan-20 22:31N 50°58' E 001°45'4 8.2
2019-Jan-20 22:00N 50°58' E 001°51'0 0.0
2019-Jan-20 21:30N 50°58' E 001°51'4 7.6
2019-Jan-20 21:01N 50°58' E 001°45'816.2
2019-Jan-20 20:30N 50°60' E 001°33'816.4
2019-Jan-20 20:00N 51°05' E 001°23'3 5.3
2019-Jan-20 19:29N 51°07' E 001°20'0 0.1
2019-Jan-20 19:00N 51°07' E 001°20'612.0
2019-Jan-20 18:30N 51°06' E 001°29'917.6
2019-Jan-20 18:00N 50°60' E 001°40'714.5
2019-Jan-20 17:30N 50°58' E 001°51'0 0.1
2019-Jan-20 17:00N 50°58' E 001°51'2 3.1
2019-Jan-20 16:31N 50°58' E 001°49'714.7
2019-Jan-20 16:01N 50°59' E 001°37'815.6
2019-Jan-20 15:30N 51°04' E 001°28'6 8.7
2019-Jan-20 14:49N 51°07' E 001°20'0 0.0
2019-Jan-20 14:21N 51°07' E 001°20'3 8.6
2019-Jan-20 14:01N 51°07' E 001°25'917.9
2019-Jan-20 13:31N 51°02' E 001°37'816.6
2019-Jan-20 13:01N 50°58' E 001°49'2 2.9
2019-Jan-20 12:20N 50°58' E 001°52'0 0.0
2019-Jan-20 11:59N 50°58' E 001°52'0 0.0
2019-Jan-20 11:25N 50°58' E 001°52'0 0.0
2019-Jan-20 10:55N 50°58' E 001°52'0 0.0
2019-Jan-20 10:30N 50°58' E 001°52'0 0.0
2019-Jan-20 09:58N 50°58' E 001°52'0 0.0
2019-Jan-20 09:24N 50°58' E 001°52'0 0.0
2019-Jan-20 08:55N 50°58' E 001°52'0 0.0
2019-Jan-20 08:30N 50°58' E 001°52'0 0.0
2019-Jan-20 07:58N 50°58' E 001°52'0 0.0
2019-Jan-20 07:30N 50°58' E 001°52'0 0.0
2019-Jan-20 06:58N 50°58' E 001°52'0 0.0
2019-Jan-20 06:29N 50°58' E 001°52'0 0.0
2019-Jan-20 05:54N 50°58' E 001°52'0 0.0
2019-Jan-20 05:28N 50°58' E 001°52'0 0.0
2019-Jan-20 04:57N 50°58' E 001°52'0 0.0
2019-Jan-20 04:30N 50°58' E 001°52'0 0.0
2019-Jan-20 03:59N 50°58' E 001°52'0 0.0
2019-Jan-20 03:24N 50°58' E 001°52'0 0.0
2019-Jan-20 02:59N 50°58' E 001°52'0 0.0
2019-Jan-20 02:25N 50°58' E 001°52'3 6.6
2019-Jan-20 02:01N 50°58' E 001°47'816.5
2019-Jan-20 01:30N 50°59' E 001°34'815.9
2019-Jan-20 01:01N 51°04' E 001°25'5 6.2
2019-Jan-20 00:17N 51°07' E 001°20'0 0.0
2019-Jan-19 23:57N 51°07' E 001°20'510.4
2019-Jan-19 23:31N 51°06' E 001°27'815.9
2019-Jan-19 23:00N 51°03' E 001°38'815.0
2019-Jan-19 22:31N 50°58' E 001°48'2 4.4
2019-Jan-19 22:00N 50°58' E 001°51'0 0.0
2019-Jan-19 21:30N 50°58' E 001°51'4 7.5
2019-Jan-19 21:00N 50°58' E 001°45'816.2
2019-Jan-19 20:30N 50°60' E 001°33'816.3
2019-Jan-19 20:01N 51°06' E 001°24'3 3.8
2019-Jan-19 19:14N 51°07' E 001°20'0 0.1
2019-Jan-19 19:00N 51°07' E 001°20'510.6
2019-Jan-19 18:31N 51°05' E 001°28'917.7
2019-Jan-19 18:00N 51°01' E 001°39'815.4
2019-Jan-19 17:31N 50°58' E 001°51'0 0.2
2019-Jan-19 17:00N 50°58' E 001°51'2 3.9
2019-Jan-19 16:30N 50°58' E 001°48'714.2
2019-Jan-19 16:01N 50°58' E 001°37'816.1
2019-Jan-19 15:30N 51°03' E 001°27'6 7.6
2019-Jan-19 14:43N 51°07' E 001°20'0 0.0
2019-Jan-19 14:23N 51°07' E 001°20'411.0
2019-Jan-19 14:01N 51°06' E 001°26'917.8
2019-Jan-19 13:30N 51°01' E 001°38'816.2
2019-Jan-19 13:00N 50°58' E 001°50'1 1.4
2019-Jan-19 12:30N 50°58' E 001°51'0 0.4
2019-Jan-19 12:00N 50°58' E 001°51'815.8
2019-Jan-19 11:30N 50°59' E 001°39'917.4
2019-Jan-19 11:01N 51°05' E 001°28'610.6
2019-Jan-19 10:29N 51°07' E 001°20'0 0.0
2019-Jan-19 09:55N 51°07' E 001°20'3 6.6
2019-Jan-19 09:31N 51°07' E 001°24'918.3
2019-Jan-19 09:01N 51°02' E 001°36'816.5
2019-Jan-19 08:30N 50°58' E 001°48'2 3.7
2019-Jan-19 08:00N 50°58' E 001°51'0 0.0
2019-Jan-19 07:30N 50°58' E 001°51'4 7.6
2019-Jan-19 07:00N 50°58' E 001°45'816.4
2019-Jan-19 06:30N 51°00' E 001°33'816.2
2019-Jan-19 06:00N 51°06' E 001°23'3 4.5
2019-Jan-19 05:27N 51°07' E 001°20'0 0.0
2019-Jan-19 04:59N 51°07' E 001°20'4 7.6
2019-Jan-19 04:31N 51°07' E 001°26'815.7
2019-Jan-19 04:00N 51°03' E 001°36'815.5
2019-Jan-19 03:31N 50°58' E 001°46'3 5.8
2019-Jan-19 03:00N 50°58' E 001°51'0 0.0
2019-Jan-19 02:31N 50°58' E 001°51'1 3.0
2019-Jan-19 02:00N 50°58' E 001°49'816.0
2019-Jan-19 01:30N 51°00' E 001°36'816.4
2019-Jan-19 01:01N 51°04' E 001°25'4 5.4
2019-Jan-19 00:12N 51°07' E 001°20'0 0.0
2019-Jan-18 23:53N 51°07' E 001°20'2 4.9
2019-Jan-18 23:31N 51°07' E 001°23'815.8
2019-Jan-18 23:01N 51°03' E 001°34'816.0
2019-Jan-18 22:31N 50°58' E 001°44'4 8.6
2019-Jan-18 22:00N 50°58' E 001°51'0 0.0
2019-Jan-18 21:30N 50°58' E 001°51'4 8.1
2019-Jan-18 21:01N 50°58' E 001°45'917.6
2019-Jan-18 20:31N 51°01' E 001°32'816.2
2019-Jan-18 20:00N 51°06' E 001°22'2 2.8
2019-Jan-18 19:27N 51°07' E 001°20'0 0.0
2019-Jan-18 19:00N 51°07' E 001°20'611.5
2019-Jan-18 18:30N 51°06' E 001°29'917.3
2019-Jan-18 18:00N 51°00' E 001°40'714.9
2019-Jan-18 17:30N 50°58' E 001°51'0 0.2
2019-Jan-18 17:00N 50°58' E 001°51'1 2.3
2019-Jan-18 16:31N 50°58' E 001°50'713.0
2019-Jan-18 16:01N 50°58' E 001°39'917.8
2019-Jan-18 15:31N 51°04' E 001°28'612.0
2019-Jan-18 14:59N 51°07' E 001°20'0 0.0
2019-Jan-18 14:30N 51°07' E 001°20'4 7.6
2019-Jan-18 14:01N 51°06' E 001°26'917.0
2019-Jan-18 13:30N 51°02' E 001°38'816.2
2019-Jan-18 13:01N 50°58' E 001°49'1 3.0
2019-Jan-18 12:31N 50°58' E 001°51'0 0.2
2019-Jan-18 12:01N 50°58' E 001°51'713.9
2019-Jan-18 11:31N 50°58' E 001°40'817.0
2019-Jan-18 11:00N 51°03' E 001°29'713.3
2019-Jan-18 10:29N 51°07' E 001°20'0 0.0
2019-Jan-18 09:48N 51°07' E 001°20'1 4.5
2019-Jan-18 09:30N 51°07' E 001°22'918.0
2019-Jan-18 09:00N 51°03' E 001°35'917.7
2019-Jan-18 08:30N 50°58' E 001°47'3 6.0
2019-Jan-18 08:01N 50°58' E 001°51'0 0.0
2019-Jan-18 07:31N 50°58' E 001°51'2 4.7
2019-Jan-18 07:00N 50°58' E 001°47'917.2
2019-Jan-18 06:30N 50°60' E 001°34'917.2
2019-Jan-18 06:01N 51°05' E 001°24'3 5.0
2019-Jan-18 05:22N 51°07' E 001°20'0 0.0
2019-Jan-18 04:59N 51°07' E 001°20'4 7.6
2019-Jan-18 04:31N 51°06' E 001°26'817.0
2019-Jan-18 04:01N 51°01' E 001°37'816.4
2019-Jan-18 03:31N 50°58' E 001°49'2 3.3
2019-Jan-18 03:01N 50°58' E 001°51'0 0.0
2019-Jan-18 02:30N 50°58' E 001°51'2 3.1
2019-Jan-18 02:01N 50°58' E 001°49'815.1
2019-Jan-18 01:30N 50°60' E 001°37'816.1
2019-Jan-18 01:00N 51°04' E 001°27'5 9.6
2019-Jan-18 00:28N 51°07' E 001°20'0 0.0
2019-Jan-17 23:57N 51°07' E 001°20'4 9.5
2019-Jan-17 23:31N 51°06' E 001°27'815.7
2019-Jan-17 23:00N 51°02' E 001°37'715.0
2019-Jan-17 22:30N 50°58' E 001°47'3 5.1
2019-Jan-17 22:01N 50°58' E 001°51'0 0.1
2019-Jan-17 21:31N 50°58' E 001°51'611.8
2019-Jan-17 21:01N 50°58' E 001°42'918.8
2019-Jan-17 20:31N 51°03' E 001°29'7 9.9
2019-Jan-17 19:47N 51°07' E 001°20'0 0.0
2019-Jan-17 19:30N 51°07' E 001°20'2 4.1
2019-Jan-17 19:01N 51°07' E 001°23'917.4
2019-Jan-17 18:31N 51°03' E 001°35'816.6
2019-Jan-17 18:01N 50°58' E 001°46'3 6.3
2019-Jan-17 17:30N 50°58' E 001°51'0 0.0
2019-Jan-17 17:00N 50°58' E 001°51'2 4.9
2019-Jan-17 16:31N 50°58' E 001°47'713.8
2019-Jan-17 16:00N 50°59' E 001°36'917.6
2019-Jan-17 15:30N 51°04' E 001°25'5 8.6
2019-Jan-17 14:58N 51°07' E 001°20'0 0.0
2019-Jan-17 14:27N 51°07' E 001°20'410.2
2019-Jan-17 14:01N 51°06' E 001°27'917.5
2019-Jan-17 13:31N 51°01' E 001°38'816.3
2019-Jan-17 13:00N 50°58' E 001°51'1 1.0
2019-Jan-17 12:30N 50°58' E 001°51'0 0.5
2019-Jan-17 12:00N 50°58' E 001°51'816.0
2019-Jan-17 11:30N 50°59' E 001°38'919.0
2019-Jan-17 11:00N 51°04' E 001°26'5 7.8
2019-Jan-17 10:23N 51°07' E 001°20'0 0.0
2019-Jan-17 09:50N 51°07' E 001°20'2 6.3
2019-Jan-17 09:31N 51°07' E 001°23'917.8
2019-Jan-17 09:00N 51°03' E 001°36'816.5
2019-Jan-17 08:30N 50°58' E 001°47'3 5.9
2019-Jan-17 08:00N 50°58' E 001°51'0 0.0
2019-Jan-17 07:31N 50°58' E 001°51'3 6.8
2019-Jan-17 07:01N 50°58' E 001°46'917.2
2019-Jan-17 06:30N 50°60' E 001°32'917.1
2019-Jan-17 06:00N 51°06' E 001°23'2 4.8
2019-Jan-17 05:30N 51°07' E 001°20'0 0.0
2019-Jan-17 04:57N 51°07' E 001°20'4 8.3
2019-Jan-17 04:30N 51°06' E 001°26'815.6
2019-Jan-17 04:01N 51°02' E 001°36'815.1
2019-Jan-17 03:30N 50°58' E 001°46'3 2.9
2019-Jan-17 02:31N 50°58' E 001°51'1 2.2
2019-Jan-17 02:00N 50°58' E 001°49'815.6
2019-Jan-17 01:30N 50°59' E 001°37'816.1
2019-Jan-17 01:01N 51°03' E 001°26'610.4
2019-Jan-17 00:27N 51°07' E 001°20'0 0.0
2019-Jan-16 23:48N 51°07' E 001°20'3 8.8
2019-Jan-16 23:31N 51°07' E 001°24'815.8
2019-Jan-16 23:01N 51°03' E 001°35'815.8
2019-Jan-16 22:31N 50°58' E 001°45'4 7.6
2019-Jan-16 22:01N 50°58' E 001°51'0 0.0
2019-Jan-16 21:31N 50°58' E 001°51'611.3
2019-Jan-16 21:01N 50°58' E 001°42'918.7
2019-Jan-16 20:31N 51°02' E 001°29'811.8
2019-Jan-16 19:52N 51°07' E 001°20'0 0.0
2019-Jan-16 19:30N 51°07' E 001°20'1 1.6
2019-Jan-16 19:01N 51°07' E 001°21'816.3
2019-Jan-16 18:30N 51°04' E 001°33'917.5
2019-Jan-16 18:01N 50°59' E 001°44'4 8.9
2019-Jan-16 17:30N 50°58' E 001°51'0 0.0
2019-Jan-16 17:00N 50°58' E 001°51'2 3.8
2019-Jan-16 16:31N 50°58' E 001°48'917.1
2019-Jan-16 16:00N 50°60' E 001°35'918.0
2019-Jan-16 15:30N 51°05' E 001°24'3 5.6
2019-Jan-16 14:59N 51°07' E 001°20'0 0.1
2019-Jan-16 14:30N 51°07' E 001°20'612.1
2019-Jan-16 14:01N 51°05' E 001°29'918.4
2019-Jan-16 13:30N 50°60' E 001°41'713.4
2019-Jan-16 13:01N 50°58' E 001°51'0 0.0
2019-Jan-16 12:31N 50°58' E 001°51'1 2.7
2019-Jan-16 12:01N 50°58' E 001°49'816.0
2019-Jan-16 11:31N 50°60' E 001°36'917.7
2019-Jan-16 11:00N 51°05' E 001°25'4 6.2
2019-Jan-16 10:23N 51°07' E 001°20'0 0.0
2019-Jan-16 09:56N 51°07' E 001°20'3 7.1
2019-Jan-16 09:30N 51°07' E 001°25'917.8
2019-Jan-16 09:00N 51°02' E 001°37'816.9
2019-Jan-16 08:31N 50°58' E 001°49'1 2.9
2019-Jan-16 08:00N 50°58' E 001°51'0 0.0
2019-Jan-16 07:31N 50°58' E 001°51'4 7.3
2019-Jan-16 07:01N 50°58' E 001°45'713.3
2019-Jan-16 06:31N 51°00' E 001°35'816.4
2019-Jan-16 06:00N 51°05' E 001°25'4 6.8
2019-Jan-16 05:26N 51°07' E 001°20'0 0.0
2019-Jan-16 05:00N 51°07' E 001°20'3 6.5
2019-Jan-16 04:31N 51°07' E 001°25'816.6
2019-Jan-16 04:01N 51°03' E 001°37'816.4
2019-Jan-16 03:30N 50°58' E 001°47'3 5.1
2019-Jan-16 03:00N 50°58' E 001°51'0 0.0
2019-Jan-16 02:31N 50°58' E 001°51'2 3.0
2019-Jan-16 02:01N 50°58' E 001°49'815.4
2019-Jan-16 01:31N 50°60' E 001°37'816.5
2019-Jan-16 01:00N 51°05' E 001°26'5 9.4
2019-Jan-16 00:30N 51°07' E 001°20'0 0.0
2019-Jan-15 23:53N 51°07' E 001°20'2 6.0
2019-Jan-15 23:31N 51°07' E 001°24'816.0
2019-Jan-15 23:00N 51°03' E 001°35'816.3
2019-Jan-15 22:31N 50°58' E 001°45'4 7.6
2019-Jan-15 22:00N 50°58' E 001°51'0 0.0
2019-Jan-15 21:30N 50°58' E 001°51'510.6
2019-Jan-15 21:00N 50°58' E 001°43'917.8
2019-Jan-15 20:30N 51°03' E 001°31'816.1
2019-Jan-15 20:00N 51°07' E 001°20'0 0.0
2019-Jan-15 19:10N 51°07' E 001°20'0 1.3
2019-Jan-15 19:00N 51°07' E 001°20'816.3
2019-Jan-15 18:31N 51°05' E 001°33'918.3
2019-Jan-15 18:01N 50°59' E 001°44'5 9.7
2019-Jan-15 17:30N 50°58' E 001°51'0 0.0
2019-Jan-15 17:00N 50°58' E 001°51'3 6.8
2019-Jan-15 16:31N 50°58' E 001°46'815.8
2019-Jan-15 16:00N 50°59' E 001°33'815.4
2019-Jan-15 15:30N 51°05' E 001°26'5 6.9
2019-Jan-15 14:51N 51°07' E 001°20'0 0.0
2019-Jan-15 14:29N 51°07' E 001°20'4 8.9
2019-Jan-15 14:01N 51°06' E 001°27'918.6
2019-Jan-15 13:30N 51°01' E 001°39'816.2
2019-Jan-15 13:00N 50°58' E 001°51'0 0.4
2019-Jan-15 12:30N 50°58' E 001°51'0 0.3
2019-Jan-15 12:00N 50°58' E 001°51'714.3
2019-Jan-15 11:31N 50°59' E 001°40'918.9
2019-Jan-15 11:00N 51°04' E 001°27'5 9.1
2019-Jan-15 10:24N 51°07' E 001°20'0 0.0
2019-Jan-15 09:51N 51°07' E 001°20'3 9.1
2019-Jan-15 09:31N 51°07' E 001°25'816.8
2019-Jan-15 09:01N 51°02' E 001°36'816.5
2019-Jan-15 08:31N 50°58' E 001°47'2 4.9
2019-Jan-15 08:01N 50°58' E 001°51'0 0.0
2019-Jan-15 07:31N 50°58' E 001°51'3 6.6
2019-Jan-15 07:01N 50°58' E 001°46'815.9
2019-Jan-15 06:30N 51°01' E 001°34'815.6
2019-Jan-15 06:01N 51°05' E 001°24'3 5.8
2019-Jan-15 05:26N 51°07' E 001°20'0 0.0
2019-Jan-15 04:58N 51°07' E 001°20'4 8.5
2019-Jan-15 04:31N 51°06' E 001°26'715.0
2019-Jan-15 04:00N 51°02' E 001°36'714.6
2019-Jan-15 03:31N 50°58' E 001°46'3 6.7
2019-Jan-15 03:00N 50°58' E 001°51'0 0.0
2019-Jan-15 02:30N 50°58' E 001°51'2 5.0
2019-Jan-15 02:00N 50°58' E 001°47'917.8
2019-Jan-15 01:30N 51°01' E 001°34'918.7
2019-Jan-15 01:00N 51°06' E 001°21'2 3.3
2019-Jan-15 00:30N 51°07' E 001°20'0 1.0
2019-Jan-15 00:00N 51°07' E 001°21'918.0
2019-Jan-14 23:31N 51°04' E 001°34'918.8
2019-Jan-14 23:00N 50°58' E 001°46'3 6.8
2019-Jan-14 22:30N 50°58' E 001°51'0 0.1
2019-Jan-14 22:00N 50°58' E 001°51'714.6
2019-Jan-14 21:30N 50°59' E 001°40'919.0
2019-Jan-14 21:00N 51°04' E 001°27'5 5.9
2019-Jan-14 20:05N 51°07' E 001°20'0 0.0
2019-Jan-14 20:00N 51°07' E 001°20'0 0.1
2019-Jan-14 19:17N 51°07' E 001°20'0 0.6
2019-Jan-14 19:00N 51°07' E 001°20'612.5
2019-Jan-14 18:31N 51°06' E 001°30'917.9
2019-Jan-14 18:00N 51°01' E 001°41'713.7
2019-Jan-14 17:30N 50°58' E 001°51'0 0.2
2019-Jan-14 17:01N 50°58' E 001°51'0 0.8
2019-Jan-14 16:31N 50°58' E 001°51'816.6
2019-Jan-14 16:00N 50°59' E 001°37'815.7
2019-Jan-14 15:30N 51°04' E 001°28'611.4
2019-Jan-14 14:59N 51°07' E 001°20'0 0.0
2019-Jan-14 14:30N 51°07' E 001°20'3 6.9
2019-Jan-14 14:00N 51°06' E 001°25'918.6
2019-Jan-14 13:30N 51°01' E 001°38'816.9
2019-Jan-14 13:00N 50°58' E 001°50'1 1.4
2019-Jan-14 12:30N 50°58' E 001°51'0 0.0
2019-Jan-14 12:01N 50°58' E 001°51'713.3
2019-Jan-14 11:31N 50°59' E 001°41'917.6
2019-Jan-14 11:00N 51°03' E 001°28'712.7
2019-Jan-14 10:28N 51°07' E 001°20'0 0.0
2019-Jan-14 09:59N 51°07' E 001°20'2 5.2
2019-Jan-14 09:31N 51°07' E 001°24'917.5
2019-Jan-14 09:00N 51°02' E 001°36'816.8
2019-Jan-14 08:30N 50°58' E 001°47'2 4.9
2019-Jan-14 08:01N 50°58' E 001°51'0 0.0
2019-Jan-14 07:31N 50°58' E 001°51'3 5.4
2019-Jan-14 07:00N 50°58' E 001°47'815.2
2019-Jan-14 06:30N 51°00' E 001°35'816.1
2019-Jan-14 06:00N 51°05' E 001°25'4 7.0
2019-Jan-14 05:27N 51°07' E 001°20'0 0.0
2019-Jan-14 05:00N 51°07' E 001°20'510.4
2019-Jan-14 04:30N 51°05' E 001°28'816.9
2019-Jan-14 04:01N 51°01' E 001°39'714.8
2019-Jan-14 03:31N 50°58' E 001°50'1 1.6
2019-Jan-14 03:01N 50°58' E 001°51'0 0.0
2019-Jan-14 02:31N 50°58' E 001°51'2 4.6
2019-Jan-14 02:01N 50°58' E 001°48'816.3
2019-Jan-14 01:30N 50°59' E 001°35'917.6
2019-Jan-14 01:00N 51°06' E 001°25'4 7.3
2019-Jan-14 00:30N 51°07' E 001°20'0 0.0
2019-Jan-13 23:58N 51°07' E 001°20'4 8.0
2019-Jan-13 23:30N 51°06' E 001°26'815.9
2019-Jan-13 23:00N 51°01' E 001°36'815.5
2019-Jan-13 22:31N 50°58' E 001°47'3 5.5
2019-Jan-13 22:00N 50°58' E 001°51'0 0.0
2019-Jan-13 21:31N 50°58' E 001°51'4 8.0
2019-Jan-13 21:00N 50°58' E 001°45'714.9
2019-Jan-13 20:31N 51°01' E 001°34'816.0
2019-Jan-13 20:00N 51°06' E 001°24'3 5.4
2019-Jan-13 19:29N 51°07' E 001°20'0 0.0
2019-Jan-13 19:00N 51°07' E 001°20'612.1
2019-Jan-13 18:30N 51°06' E 001°29'917.3
2019-Jan-13 18:01N 51°01' E 001°40'714.6
2019-Jan-13 17:30N 50°58' E 001°51'  

Dump ship's entire track history